National Weather Service Raw Text Product

Displaying AFOS PIL: TAFOTM Received: 2018-02-09 11:34 UTC


997 
FTUS43 KDMX 091134
TAFOTM
TAF
KOTM 091134Z 0912/1012 02014KT 3SM -SN OVC010
     FM091500 02015KT P6SM OVC040
     FM092100 02011KT P6SM OVC026
     FM092300 01010KT P6SM OVC030
     FM100300 36012KT 1 1/2SM -SN OVC018=